Aviation Digital Data Service (ADDS)

Output produced by METARs form (0650 UTC 24 March 2019)
found at http://www.aviationweather.gov/metar/data/
 
KAIT 240635Z AUTO 23003KT 10SM CLR 01/M02 A3007 RMK AO2
KAEL 240647Z AUTO 13003KT 10SM OVC090 06/03 A3009 RMK AO2
KAXN 240553Z AUTO 19004KT 10SM CLR 03/M01 A3009 RMK AO2 SLP203 T00281006 10083 20017 401001039 55002
KAXN 240520Z 2406/2506 16005KT P6SM SCT250 
     FM240800 VRB03KT 6SM BR BKN200 
     FM241400 04007KT P6SM SCT080 
     FM241800 04012G20KT P6SM BKN020 
     FM242200 05011G19KT P6SM SCT020 BKN040 
     FM250100 06008KT P6SM SKC
       
KAQP 240637Z AUTO 00000KT 10SM BKN070 OVC080 03/02 A3009 RMK AO2
KAUM 240645Z AUTO 09003KT 10SM -DZ OVC055 05/00 A3010 RMK AO2
KBDE 240553Z AUTO 34007KT 10SM CLR 01/M02 A3009 RMK AO2 SLP201 T00061017 10061 20000 400891094 53015
KBJI 240635Z AUTO 00000KT 10SM CLR 01/M01 A3009 RMK AO2 T00051015
KBJI 240522Z 2406/2506 26005KT P6SM SCT050 
     FM240900 VRB03KT P6SM BKN025 
     FM241800 04010KT P6SM BKN045 
     FM242000 03009KT P6SM SCT180
       
KBBB 240635Z AUTO 18005KT 10SM OVC070 03/02 A3010 RMK AO2
KFOZ 240633Z AUTO 00000KT 10SM CLR 01/M02 A3011 RMK AO2
KBRD 240553Z AUTO 20003KT 7SM CLR 01/M02 A3008 RMK AO2 SLP199 T00111022 10078 20011 401001083 56001
KBRD 240530Z 2406/2506 26004KT P6SM FEW250 
     FM241300 03007G16KT P6SM BKN015 
     FM241900 06013G22KT P6SM BKN022 
     FM242300 06010G17KT P6SM SCT040
       
KCBG 240635Z AUTO 00000KT 10SM CLR M02/M09 A3011 RMK AO2
KCNB 240636Z AUTO 24003KT 4SM -RA OVC046 04/03 A3010 RMK AO2 P0001 T00410026
KCOQ 240635Z AUTO 28006KT 10SM CLR 02/M03 A3006 RMK AO2
KCQM 240636Z AUTO 29004KT 10SM CLR 02/M01 A3006 RMK AO2
KCKN 240635Z AUTO 03003KT 2 1/2SM BR CLR M02/M02 A3012 RMK AO2
KDTL 240635Z AUTO 00000KT 7SM SCT048 01/00 A3010 RMK AO2
KTOB 240635Z AUTO 00000KT 10SM SCT055 BKN070 03/01 A3010 RMK AO2
KDLH 240555Z 27012KT 10SM CLR 03/M02 A3004 RMK AO2 SLP185 T00331022 10094 20033 401111033 55002
KDLH 240530Z 2406/2506 29006G16KT P6SM FEW250 
     FM241100 06008G20KT 6SM BR BKN015 
     FM241200 08015G32KT 5SM -FZDZ BKN010 
     FM241600 07015G28KT P6SM BKN017 
     FM241900 07013G23KT P6SM SCT025 
     FM242300 08008G15KT P6SM SKC
       
KDYT 240635Z AUTO 10SM CLR 03/M02 A3008 RMK AO2
KY63 240636Z AUTO 10004KT 7SM CLR 02/02 A3009 RMK AO2 T00160015
KELO 240636Z AUTO 27004KT 10SM BKN041 03/M03 A3003 RMK AO2
KEVM 240630Z AUTO 00000KT 10SM CLR M01/M04 A3006 RMK AO2
KFRM 240556Z AUTO 06006KT 10SM OVC085 05/03 A3009 RMK AO2 RAE13 SLP199 P0000 60000 T00500033 10089 20050 401111017 58002
KFFM 240636Z AUTO 00000KT 10SM CLR 02/01 A3008 RMK AO2
KFSE 240636Z AUTO 00000KT 5SM BR CLR M03/M05 A3010 RMK AO2
KGYL 240636Z AUTO 00000KT 7SM -DZ OVC050 05/03 A3010 RMK AO2 T00500030
KGHW 240635Z AUTO 00000KT 7SM SCT070 02/02 A3010 RMK AO2
KCKC 240635Z AUTO 29005KT 10SM BKN044 04/M05 A2998 RMK AO2
KGPZ 240556Z AUTO 30006KT 10SM CLR 03/M01 A3008 RMK AO2 SLP201 T00331006 10094 20033 401061083 53006
KGDB 240636Z AUTO 16007KT 5SM -DZ OVC050 04/03 A3011 RMK AO2 T00420031
KHCO 240635Z AUTO 36011KT 10SM OVC065 01/M01 A3015 RMK AO2
KHIB 240553Z AUTO 28004KT 10SM CLR M01/M04 A3005 RMK AO2 SLP190 T10111039 10089 21028 401111111 53006
KHIB 240530Z 2406/2506 30004KT P6SM FEW250 
     FM241000 03008G19KT 6SM BR BKN018 
     FM241200 05008G21KT 6SM BR BKN013 
     FM241700 06009G16KT P6SM BKN020 
     FM242000 05007KT P6SM FEW035
       
KHCD 240559Z AUTO 00000KT 10SM OVC060 04/03 A3011 RMK AO2
KINL 240555Z AUTO 31005KT 10SM CLR 01/M01 A3008 RMK AO2 SLP201 T00061011 10100 20006 401221100 53018 VISNO RWY 31 $
KINL 240530Z 2406/2506 36010G24KT P6SM SCT014 
     FM240800 03012G25KT P6SM BKN011 
     FM241300 04012G23KT P6SM SCT050 
     FM242000 05007KT P6SM FEW050
       
KMJQ 240635Z AUTO 08005KT 10SM SCT050 OVC075 05/02 A3007 RMK AO2
KLJF 240636Z AUTO 00000KT 10SM OVC070 03/03 A3010 RMK AO2
KLXL 240559Z AUTO 00000KT 5SM BR CLR M02/M02 A3009 RMK AO2
K14Y 240636Z AUTO 22004KT 5SM BR CLR 00/M01 A3009 RMK AO2
KXVG 240633Z AUTO 28003KT 10SM CLR 01/M01 A3008 RMK AO2 TSNO
KLYV 240635Z AUTO 03004KT 10SM OVC065 05/02 A3005 RMK AO2
KDXX 240636Z AUTO 20003KT 7SM OVC055 04/04 A3009 RMK AO2
K3N8 240635Z AUTO 00000KT 10SM CLR 00/M01 A3009 RMK AO2 T10041014
KMKT 240556Z AUTO 13003KT 10SM -RA OVC050 06/03 A3011 RMK AO2 RAB18 SLP207 P0000 60000 T00610033 10094 20056 401061022 50002
KMKT 240520Z 2406/2506 VRB03KT P6SM OVC060 
     FM241200 06006KT P6SM OVC060 
     FM241800 04011G19KT P6SM SCT080 
     FM242100 02015G21KT P6SM SCT025 OVC035
       
KMML 240556Z AUTO 23004KT 9SM -RA OVC047 03/03 A3010 RMK AO2 RAE0459B18 SLP206 P0001 60001 T00330028 10078 20028 401001044 51006
KHZX 240635Z AUTO 22004KT 10SM CLR 01/00 A3008 RMK AO2
KLVN 240635Z AUTO 00000KT 10SM 02/02 A3011 RMK AO2
KANE 240636Z AUTO 00000KT 10SM CLR 01/M01 A3011 RMK AO2
KMIC 240553Z AUTO 00000KT 10SM CLR 01/M02 A3010 RMK AO2 SLP200 T00111022 10100 20006 401221061 56003
KFCM 240553Z AUTO 00000KT 10SM CLR 04/00 A3010 RMK AO2 SLP198 T00390000 10094 20033 401111044 56002
KMSP 240553Z 00000KT 10SM OVC160 05/01 A3012 RMK AO2 SLP203 T00500011 10100 20050 401221033 56003
KMSP 240520Z 2406/2512 16005KT P6SM BKN250 
     FM240800 03004KT P6SM OVC100 
     FM241800 02012G19KT P6SM SCT020 BKN035 
     FM250100 03010KT P6SM FEW250
       
KMVE 240636Z AUTO 17003KT 10SM OVC055 04/02 A3010 RMK AO2
KJKJ 240635Z AUTO 00000KT 2SM BR CLR M02/M03 A3011 RMK AO2
KMZH 240639Z AUTO 00000KT 10SM CLR M02/M04 A3006 RMK AO2
KJMR 240635Z AUTO 00000KT 10SM CLR M02/M04 A3011 RMK AO2
KMOX 240636Z AUTO 13004KT 5SM BR OVC080 01/01 A3004 RMK AO2
KULM 240635Z AUTO 07003KT 10SM RA SCT042 BKN060 OVC070 06/03 A3010 RMK AO2 P0002 P0002
KOVL 240635Z AUTO 00000KT 10SM SCT044 OVC050 04/02 A3009 RMK AO2
KORB 240633Z AUTO 31006KT 10SM CLR 01/M02 A3005 RMK AO2
KVVV 240635Z AUTO 00000KT 5SM BR BKN080 02/01 A3008 RMK AO2
KOWA 240641Z AUTO 00000KT 10SM BKN065 BKN090 04/02 A3010 RMK AO2
KPKD 240553Z AUTO 00000KT 10SM CLR 00/M03 A3006 RMK AO2 SLP196 T00001028 10056 21006 400781072 55002
KPEX 240559Z AUTO 00000KT 10SM CLR 00/00 A3010 RMK AO2
KPWC 240635Z AUTO 00000KT 10SM BKN046 M02/M03 A3011 RMK AO2
KPQN 240635Z AUTO 07004KT 10SM OVC060 04/03 A3006 RMK AO2
KFKA 240636Z AUTO 19005KT 7SM -RA BKN044 OVC050 04/01 A3012 RMK AO2 T00440008
KPNM 240635Z AUTO 00000KT 10SM CLR M02/M04 A3010 RMK AO2
KRGK 240636Z AUTO 00000KT 10SM CLR 01/M02 A3011 RMK AO2
KRWF 240553Z AUTO 14004KT 10SM -RA OVC050 05/03 A3010 RMK AO2 SLP200 P0000 60000 T00500033 10072 20044 401061028 50004
KRWF 240520Z 2406/2506 VRB03KT P6SM OVC070 
     FM241400 03007KT P6SM BKN100 
     FM242000 02011G19KT P6SM SCT025 BKN035
       
KRST 240554Z AUTO 17006KT 10SM FEW055 OVC080 03/01 A3012 RMK AO2 SLP210 T00330006 10067 20028 400891033 58003 $
KRST 240525Z 2406/2506 16006KT P6SM OVC110 
     FM241000 10005KT P6SM VCSH OVC060 
     FM241500 05006KT P6SM OVC050 
     FM242300 03011KT P6SM BKN025
       
KROX 240630Z AUTO 02009KT 10SM CLR M01/M03 A3014 RMK AO2
KROS 240635Z AUTO 19004KT 10SM CLR M01/M03 A3010 RMK AO2 T10151035
KSTC 240553Z AUTO 00000KT 9SM CLR M01/M02 A3009 RMK AO2 SLP210 T10111022 10067 21011 400891067 56005
KSTC 240520Z 2406/2506 00000KT P6SM BKN250 
     FM241400 02006KT P6SM SCT200 
     FM241800 03008KT P6SM BKN020 
     FM242200 03011G17KT P6SM SCT025 BKN040 
     FM250100 04005KT P6SM SKC
       
KJYG 240635Z AUTO 04003KT 10SM SCT050 BKN110 04/03 A3008 RMK AO2
KSTP 240553Z AUTO 00000KT 7SM CLR 02/M01 A3013 RMK AO2 SLP207 T00171006 10083 20011 401221039 56002
KD39 240636Z AUTO 00000KT 5SM BR CLR 00/00 A3009 RMK AO2 T10011002
KBFW 240635Z AUTO 00000KT 10SM CLR 04/M02 A2992 RMK AO2
KDVP 240615Z AUTO 08004KT 10SM SCT050 OVC065 05/03 A3008 RMK AO2 T00450025
KSGS 240636Z AUTO 00000KT 10SM CLR 02/00 A3011 RMK AO2 T00210000
KSAZ 240635Z AUTO 00000KT 5SM BR CLR M03/M03 A3008 RMK AO2
KTVF 240556Z AUTO 34004KT 7SM OVC060 M01/M02 A3011 RMK AO2 SLP213 T10061017 10028 21011 51012 FZRANO
KTVF 240522Z 2406/2506 24003KT P6SM SCT060 
     FM241000 03009KT P6SM BKN018 
     FM241500 03015G23KT P6SM SCT050 
     FM250300 04006KT P6SM SKC
       
KTKC 240635Z AUTO 00000KT 5SM DZ SCT047 BKN065 04/04 A3008 RMK AO2 P0001 T00400037 TSNO
KTWM 240635Z AUTO 24006KT 10SM CLR 04/M02 A3002 RMK AO2
KADC 240636Z AUTO 31003KT 2 1/2SM BR CLR M03/M03 A3008 RMK AO2
KY49 240635Z AUTO 00000KT 10SM CLR 03/M01 A3009 RMK AO2 T00261007
KRRT 240635Z AUTO 02010KT 10SM CLR 00/M02 A3015 RMK AO2
KACQ 240636Z AUTO 10005KT 10SM -DZ SCT036 BKN047 BKN050 05/02 A3011 RMK AO2
KETH 240634Z AUTO 00000KT 7SM CLR 01/00 A3011 RMK AO2
KBDH 240636Z AUTO 10003KT 10SM OVC070 03/02 A3012 RMK AO2
KMWM 240636Z AUTO 04003KT 10SM CLR 03/02 A3007 RMK AO2
KONA 240636Z AUTO 00000KT 10SM SCT080 OVC095 02/00 A3014 RMK AO2
KOTG 240556Z AUTO 04005KT 10SM OVC070 04/03 A3007 RMK AO2 RAE11 SLP195 P0000 60000 T00440028 10083 20044 401171017 58004